Flight Track Log - Related Links

Times and Time Zones

All times are in EDT time to prevent confusion due to time zone crossing. See the JZA7798 flight status page for this flight to view local times or setup timezone preferences in your user account.

Time Position Orientation Groundspeed Altitude Reporting Facility
EDT Latitude Longitude Course Direction KTS MPH feet Rate Location/Type
Sun 08:42:28 PM 46.4833 -84.5000 180° South 10 12 600  Level Toronto Center
Sun 08:43:28 PM 46.4667 -84.5000 180° South 110 127 1,200 1,100 Climbing Toronto Center
Sun 08:44:28 PM 46.4333 -84.5500 226° Southwest 130 150 2,800 1,300 Climbing Toronto Center
Sun 08:45:28 PM 46.4000 -84.5333 161° South 160 184 3,800 1,150 Climbing Toronto Center
Sun 08:46:28 PM 46.3667 -84.4833 134° Southeast 180 207 5,100 1,200 Climbing Toronto Center
Sun 08:47:28 PM 46.3500 -84.4333 116° Southeast 190 219 6,200 1,100 Climbing Toronto Center
Sun 08:48:28 PM 46.3167 -84.3667 126° Southeast 190 219 7,300 1,100 Climbing Toronto Center
Sun 08:49:28 PM 46.2833 -84.2833 120° Southeast 200 230 8,400 1,050 Climbing Toronto Center
Sun 08:50:28 PM 46.2500 -84.2333 134° Southeast 200 230 9,400 1,200 Climbing Toronto Center
Sun 08:51:28 PM 46.2333 -84.1667 110° East 190 219 10,800 1,150 Climbing Toronto Center
Sun 08:52:28 PM 46.2000 -84.1167 134° Southeast 190 219 11,700 1,050 Climbing Toronto Center
Sun 08:53:28 PM 46.1667 -84.0333 120° Southeast 200 230 12,900 1,150 Climbing Toronto Center
Sun 08:54:28 PM 46.1333 -83.9667 126° Southeast 200 230 14,000 1,050 Climbing Toronto Center
Sun 08:55:28 PM 46.1000 -83.9167 134° Southeast 200 230 15,000 850 Climbing Toronto Center
Sun 08:56:28 PM 46.0667 -83.8333 120° Southeast 200 230 15,700 850 Climbing Toronto Center
Sun 08:57:28 PM 46.0500 -83.7667 110° East 210 242 16,700 900 Climbing Toronto Center
Sun 08:58:28 PM 46.0167 -83.7167 134° Southeast 200 230 17,500 750 Climbing Toronto Center
Sun 08:59:28 PM 45.9833 -83.6333 120° Southeast 210 242 18,200 750 Climbing Toronto Center
Sun 09:00:28 PM 45.9500 -83.5667 126° Southeast 210 242 19,000 800 Climbing Toronto Center
Sun 09:01:28 PM 45.9167 -83.4833 120° Southeast 210 242 19,800 750 Climbing Toronto Center
Sun 09:02:28 PM 45.8833 -83.4167 126° Southeast 210 242 20,500 700 Climbing Toronto Center
Sun 09:03:28 PM 45.8500 -83.3667 134° Southeast 210 242 21,200 650 Climbing Toronto Center
Sun 09:04:28 PM 45.8000 -83.3000 137° Southeast 210 242 21,800 600 Climbing Toronto Center
Sun 09:05:28 PM 45.7833 -83.2167 106° East 210 242 22,400 550 Climbing Toronto Center
Sun 09:06:28 PM 45.7500 -83.1500 126° Southeast 220 253 22,900 300 Climbing Toronto Center
Sun 09:07:28 PM 45.7167 -83.0667 120° Southeast 220 253 23,000 50 Climbing Toronto Center
Sun 09:08:28 PM 45.6667 -82.9667 126° Southeast 250 288 23,000  Level Toronto Center
Sun 09:09:28 PM 45.6333 -82.9000 126° Southeast 260 299 23,000  Level Toronto Center
Sun 09:10:28 PM 45.5833 -82.8333 137° Southeast 260 299 23,000  Level Toronto Center
Sun 09:11:28 PM 45.5500 -82.7333 115° Southeast 260 299 23,000  Level Toronto Center
Sun 09:12:28 PM 45.5167 -82.6500 120° Southeast 260 299 23,000  Level Toronto Center
Sun 09:13:28 PM 45.4667 -82.5500 125° Southeast 260 299 23,000  Level Toronto Center
Sun 09:14:28 PM 45.4333 -82.4833 125° Southeast 260 299 23,000  Level Toronto Center
Sun 09:15:28 PM 45.3833 -82.3833 125° Southeast 260 299 23,000  Level Toronto Center
Sun 09:16:28 PM 45.3500 -82.3167 125° Southeast 260 299 23,000  Level Toronto Center
Sun 09:17:28 PM 45.3000 -82.2333 130° Southeast 260 299 23,000  Level Toronto Center
Sun 09:18:28 PM 45.2500 -82.1500 130° Southeast 260 299 23,000  Level Toronto Center
Sun 09:19:28 PM 45.2167 -82.0667 120° Southeast 260 299 23,000  Level Toronto Center
Sun 09:20:28 PM 45.1667 -81.9667 125° Southeast 250 288 23,000  Level Toronto Center
Sun 09:21:28 PM 45.1500 -81.9000 109° East 240 276 23,000  Level Toronto Center
Sun 09:22:28 PM 45.1000 -81.8000 125° Southeast 260 299 23,000  Level Toronto Center
Sun 09:23:28 PM 45.0667 -81.7333 125° Southeast 260 299 23,000  Level Toronto Center
Sun 09:24:28 PM 45.0167 -81.6667 137° Southeast 260 299 23,000  Level Toronto Center
Sun 09:25:28 PM 44.9667 -81.5667 125° Southeast 260 299 23,000  Level Toronto Center
Sun 09:26:28 PM 44.9333 -81.5000 125° Southeast 260 299 23,000  Level Toronto Center
Sun 09:27:28 PM 44.8833 -81.4000 125° Southeast 260 299 23,000  Level Toronto Center
Sun 09:28:28 PM 44.8500 -81.3333 125° Southeast 260 299 23,000  Level Toronto Center
Sun 09:29:28 PM 44.8000 -81.2333 125° Southeast 250 288 23,000  Level Toronto Center
Sun 09:30:28 PM 44.7667 -81.1667 125° Southeast 260 299 23,000  Level Toronto Center
Sun 09:31:28 PM 44.7167 -81.0833 130° Southeast 260 299 23,000  Level Toronto Center
Sun 09:32:28 PM 44.6667 -81.0000 130° Southeast 260 299 23,000  Level Toronto Center
Sun 09:33:28 PM 44.6167 -80.9167 130° Southeast 260 299 23,000 -100 Level Toronto Center
Sun 09:34:28 PM 44.5667 -80.8500 136° Southeast 260 299 22,800 -700 Descending Toronto Center
Sun 09:35:28 PM 44.5333 -80.7833 125° Southeast 280 322 21,600 -1,250 Descending Toronto Center
Sun 09:36:28 PM 44.4833 -80.6833 125° Southeast 300 345 20,300 -1,200 Descending Toronto Center
Sun 09:37:28 PM 44.4333 -80.5833 125° Southeast 300 345 19,200 -1,150 Descending Toronto Center
Sun 09:38:28 PM 44.3667 -80.5000 138° Southeast 300 345 18,000 -1,250 Descending Toronto Center
Sun 09:39:28 PM 44.3167 -80.4000 125° Southeast 310 357 16,700 -1,400 Descending Toronto Center
Sun 09:40:28 PM 44.2667 -80.3333 136° Southeast 310 357 15,200 -1,600 Descending Toronto Center
Sun 09:41:28 PM 44.2000 -80.2333 133° Southeast 310 357 13,500 -1,650 Descending Toronto Center
Sun 09:42:28 PM 44.1500 -80.1500 130° Southeast 300 345 11,900 -1,600 Descending Toronto Center
Sun 09:43:28 PM 44.0833 -80.0667 138° Southeast 290 334 10,300 -1,450 Descending Toronto Center
Sun 09:44:28 PM 44.0167 -80.0000 144° Southeast 290 334 9,000 -950 Descending Toronto Center
Sun 09:45:28 PM 43.9667 -79.9500 144° Southeast 260 299 8,400 -500 Descending Toronto Center
Sun 09:46:28 PM 43.9000 -79.8833 144° Southeast 260 299 8,000 -200 Descending Toronto Center
Sun 09:47:28 PM 43.8500 -79.8167 136° Southeast 240 276 8,000  Level Toronto Center
Sun 09:48:28 PM 43.8000 -79.7667 144° Southeast 230 265 8,000 -650 Level Toronto Center
Sun 09:49:28 PM 43.8000 -79.7000 90° East 230 265 6,700 -1,600 Descending Toronto Center
Sun 09:50:28 PM 43.8167 -79.6167 74° East 230 265 4,800 -1,850 Descending Toronto Center
Sun 09:51:28 PM 43.8500 -79.5333 61° Northeast 220 253 3,000 -900 Descending Toronto Center
Sun 09:52:28 PM 43.8333 -79.4667 109° East 200 230 3,000  Level Toronto Center
Sun 09:53:28 PM 43.7833 -79.5000 206° Southwest 170 196 3,000 -350 Level Toronto Center
Sun 09:54:28 PM 43.7500 -79.5167 200° South 160 184 2,300 -650 Descending Toronto Center
Sun 09:55:28 PM 43.7167 -79.5667 227° Southwest 140 161 1,700 -600 Descending Toronto Center
Sun 09:56:28 PM 43.7000 -79.5833 216° Southwest 100 115 1,100 -550 Descending Toronto Center
Sun 09:57:28 PM 43.6833 -79.6167 235° Southwest 100 115 600 -167 Descending Toronto Center
Sun 09:59:28 PM 43.6833 -79.6167 36° Northeast 20 23 600  Level Toronto Center
Sun 10:00:28 PM 43.6667 -79.5833 125° Southeast 40 46 600  Level Toronto Center
Sun 10:02:46 PM 43.6667 -79.6167 270° West 10 12 600  Level Toronto Center

Login

Don't have an account? Register now (free) for customized features, flight alerts, and more!